createdAt,value
2022-08-03T00:00:24.128Z,99.90
2022-08-03T00:02:50.883Z,99.90
2022-08-03T00:05:17.562Z,99.90
2022-08-03T00:07:44.130Z,99.90
2022-08-03T00:10:12.581Z,99.90
2022-08-03T00:12:39.594Z,99.90
2022-08-03T00:15:11.251Z,99.90
2022-08-03T00:17:52.831Z,99.90
2022-08-03T00:20:21.706Z,99.90
2022-08-03T00:22:49.320Z,99.90
2022-08-03T00:25:16.360Z,99.90
2022-08-03T00:27:43.201Z,99.90
2022-08-03T00:30:11.133Z,99.90
2022-08-03T00:32:38.752Z,99.90
2022-08-03T00:35:27.433Z,99.90
2022-08-03T00:37:59.265Z,99.90
2022-08-03T00:40:26.269Z,99.90
2022-08-03T00:42:54.942Z,99.90
2022-08-03T00:45:23.598Z,99.90
2022-08-03T00:47:50.589Z,99.90
2022-08-03T00:50:19.327Z,99.90
2022-08-03T00:52:47.197Z,99.90
2022-08-03T00:55:14.142Z,99.90
2022-08-03T00:57:42.072Z,99.90
2022-08-03T01:00:10.578Z,99.90
2022-08-03T01:02:38.837Z,99.90
2022-08-03T01:05:07.553Z,99.90
2022-08-03T01:07:34.373Z,99.90
2022-08-03T01:10:10.056Z,99.90
2022-08-03T01:12:46.373Z,99.90
2022-08-03T01:15:43.340Z,99.90
2022-08-03T01:18:17.029Z,99.90
2022-08-03T01:20:48.316Z,99.90
2022-08-03T01:23:33.742Z,99.90
2022-08-03T01:26:27.918Z,99.90
2022-08-03T01:29:31.861Z,99.90
2022-08-03T01:32:58.075Z,99.90
2022-08-03T01:35:13.557Z,99.90
2022-08-03T01:37:49.781Z,99.90
2022-08-03T01:40:17.457Z,99.90
2022-08-03T01:42:45.456Z,99.90
2022-08-03T01:45:15.313Z,99.90
2022-08-03T01:47:44.606Z,99.90
2022-08-03T01:50:13.214Z,99.90
2022-08-03T01:52:41.701Z,99.90
2022-08-03T01:55:10.450Z,99.90
2022-08-03T01:58:05.857Z,99.90
2022-08-03T02:00:27.043Z,99.90
2022-08-03T02:02:55.610Z,99.90
2022-08-03T02:05:23.605Z,99.90
2022-08-03T02:07:51.597Z,99.90
2022-08-03T02:10:34.831Z,99.90
2022-08-03T02:13:05.026Z,99.90
2022-08-03T02:15:33.349Z,99.90
2022-08-03T02:18:03.148Z,99.90
2022-08-03T02:20:33.002Z,99.90
2022-08-03T02:22:59.680Z,99.90
2022-08-03T02:25:26.413Z,99.90
2022-08-03T02:28:01.601Z,99.90
2022-08-03T02:30:38.580Z,99.90
2022-08-03T02:33:10.805Z,99.90
2022-08-03T02:35:39.866Z,99.90
2022-08-03T02:38:09.958Z,99.90
2022-08-03T02:40:37.856Z,99.90
2022-08-03T02:43:10.058Z,99.90
2022-08-03T02:45:45.700Z,99.90
2022-08-03T02:48:17.259Z,99.90
2022-08-03T02:50:45.149Z,99.90
2022-08-03T02:53:13.908Z,99.90
2022-08-03T02:55:43.122Z,99.90
2022-08-03T02:58:13.771Z,99.90
2022-08-03T03:00:41.237Z,99.90
2022-08-03T03:03:10.072Z,99.90
2022-08-03T03:05:52.448Z,99.90
2022-08-03T03:08:26.773Z,99.90
2022-08-03T03:10:56.709Z,99.90
2022-08-03T03:13:24.687Z,99.90
2022-08-03T03:15:52.762Z,99.90
2022-08-03T03:18:22.710Z,99.90
2022-08-03T03:20:51.534Z,99.90
2022-08-03T03:23:20.027Z,99.90
2022-08-03T03:25:46.912Z,99.90
2022-08-03T03:28:14.329Z,99.90
2022-08-03T03:30:41.093Z,99.90
2022-08-03T03:33:08.052Z,99.90
2022-08-03T03:35:38.775Z,99.90
2022-08-03T03:38:06.581Z,99.90
2022-08-03T03:40:34.905Z,99.90
2022-08-03T03:43:01.730Z,99.90
2022-08-03T03:45:30.826Z,99.90
2022-08-03T03:47:59.503Z,99.90
2022-08-03T03:50:27.330Z,99.90
2022-08-03T03:52:53.967Z,99.90
2022-08-03T03:55:20.606Z,99.90
2022-08-03T03:57:47.232Z,99.90
2022-08-03T04:00:14.865Z,99.90
2022-08-03T04:02:41.714Z,99.90
2022-08-03T04:05:27.678Z,99.90
2022-08-03T04:08:23.866Z,99.90
2022-08-03T04:11:04.866Z,99.90
2022-08-03T04:13:38.515Z,99.90
2022-08-03T04:16:07.451Z,99.90
2022-08-03T04:18:37.105Z,99.90
2022-08-03T04:21:07.285Z,99.90
2022-08-03T04:23:37.653Z,99.90
2022-08-03T04:26:09.500Z,99.90
2022-08-03T04:28:37.506Z,99.90
2022-08-03T04:31:05.369Z,99.90
2022-08-03T04:33:34.825Z,99.90
2022-08-03T04:36:06.204Z,99.90
2022-08-03T04:38:37.244Z,99.90
2022-08-03T04:41:04.753Z,99.90
2022-08-03T04:43:34.038Z,99.90
2022-08-03T04:46:02.191Z,99.90
2022-08-03T04:48:29.029Z,99.90
2022-08-03T04:50:55.770Z,99.90
2022-08-03T04:53:22.497Z,99.90
2022-08-03T04:55:49.868Z,99.90
2022-08-03T04:58:16.503Z,99.90
2022-08-03T05:00:43.280Z,99.90
2022-08-03T05:03:23.789Z,99.90
2022-08-03T05:05:52.964Z,99.90
2022-08-03T05:08:27.817Z,99.90
2022-08-03T05:10:55.362Z,99.90
2022-08-03T05:13:25.529Z,99.90
2022-08-03T05:15:52.482Z,99.90
2022-08-03T05:18:19.240Z,99.90
2022-08-03T05:20:45.856Z,99.90
2022-08-03T05:23:12.562Z,99.90
2022-08-03T05:25:39.474Z,99.90
2022-08-03T05:28:06.209Z,99.90
2022-08-03T05:30:34.097Z,99.90
2022-08-03T05:33:02.684Z,99.90
2022-08-03T05:36:01.088Z,99.90
2022-08-03T05:38:23.934Z,99.90
2022-08-03T05:40:57.283Z,99.90
2022-08-03T05:43:43.410Z,99.90
2022-08-03T05:46:13.073Z,99.90
2022-08-03T05:48:40.422Z,99.90
2022-08-03T05:51:10.938Z,99.90
2022-08-03T05:53:38.462Z,99.90
2022-08-03T05:56:14.172Z,99.90
2022-08-03T05:58:43.875Z,99.90
2022-08-03T06:01:10.524Z,99.90
2022-08-03T06:03:37.162Z,99.90
2022-08-03T06:06:03.857Z,99.90
2022-08-03T06:08:30.510Z,99.90
2022-08-03T06:10:57.202Z,99.90
2022-08-03T06:13:23.805Z,99.90
2022-08-03T06:15:50.416Z,99.90
2022-08-03T06:18:17.043Z,99.90
2022-08-03T06:20:43.625Z,99.90
2022-08-03T06:23:16.211Z,99.90
2022-08-03T06:25:50.588Z,99.90
2022-08-03T06:31:06.611Z,99.90
2022-08-03T06:34:30.417Z,99.90
2022-08-03T06:36:20.321Z,99.90
2022-08-03T06:38:46.987Z,99.90
2022-08-03T06:41:13.635Z,99.90
2022-08-03T06:44:03.079Z,99.90
2022-08-03T06:46:26.934Z,99.90
2022-08-03T06:48:53.679Z,99.90
2022-08-03T06:51:20.601Z,99.90
2022-08-03T06:53:47.246Z,99.90
2022-08-03T06:56:13.908Z,99.90
2022-08-03T06:58:40.813Z,99.90
2022-08-03T07:01:07.469Z,99.90
2022-08-03T07:03:34.099Z,99.90
2022-08-03T07:06:01.122Z,99.90
2022-08-03T07:08:33.698Z,98.80
2022-08-03T07:11:01.393Z,96.20
2022-08-03T07:13:28.033Z,94.30
2022-08-03T07:15:56.330Z,93.40
2022-08-03T07:18:29.586Z,93.30
2022-08-03T07:20:57.303Z,92.70
2022-08-03T07:23:24.080Z,92.10
2022-08-03T07:25:50.828Z,91.40
2022-08-03T07:28:17.614Z,91.70
2022-08-03T07:30:44.271Z,90.50
2022-08-03T07:33:11.012Z,89.60
2022-08-03T07:35:37.709Z,85.00
2022-08-03T07:38:04.300Z,84.10
2022-08-03T07:40:31.891Z,83.00
2022-08-03T07:42:59.869Z,82.30
2022-08-03T07:45:26.721Z,83.30
2022-08-03T07:47:54.391Z,83.80
2022-08-03T07:50:22.036Z,83.80
2022-08-03T07:52:49.650Z,84.00
2022-08-03T07:55:19.060Z,83.30
2022-08-03T07:57:45.848Z,83.40
2022-08-03T08:00:19.490Z,83.50
2022-08-03T08:02:46.233Z,82.30
2022-08-03T08:05:13.112Z,81.40
2022-08-03T08:07:40.221Z,80.60
2022-08-03T08:10:09.814Z,79.30
2022-08-03T08:12:37.918Z,80.00
2022-08-03T08:15:05.801Z,80.90
2022-08-03T08:17:42.269Z,82.90
2022-08-03T08:20:10.250Z,80.90
2022-08-03T08:22:36.897Z,79.90
2022-08-03T08:25:06.544Z,80.50
2022-08-03T08:28:21.622Z,79.80
2022-08-03T08:30:21.926Z,80.90
2022-08-03T08:32:49.526Z,81.10
2022-08-03T08:35:17.340Z,79.40
2022-08-03T08:37:50.919Z,79.20
2022-08-03T08:40:21.751Z,78.30
2022-08-03T08:42:58.063Z,79.20
2022-08-03T08:45:25.793Z,79.30
2022-08-03T08:47:59.632Z,78.70
2022-08-03T08:50:28.371Z,78.70
2022-08-03T08:52:55.465Z,77.40
2022-08-03T08:55:23.213Z,77.50
2022-08-03T08:57:57.506Z,78.60
2022-08-03T09:00:24.280Z,76.70
2022-08-03T09:02:50.865Z,77.50
2022-08-03T09:05:19.056Z,77.90
2022-08-03T09:07:46.918Z,77.50
2022-08-03T09:10:19.599Z,76.80
2022-08-03T09:12:48.866Z,76.00
2022-08-03T09:15:18.569Z,77.30
2022-08-03T09:17:48.948Z,76.70
2022-08-03T09:20:18.493Z,77.50
2022-08-03T09:22:55.561Z,76.50
2022-08-03T09:25:39.990Z,76.50
2022-08-03T09:28:52.766Z,76.10
2022-08-03T09:31:01.861Z,73.00
2022-08-03T09:33:36.198Z,72.50
2022-08-03T09:36:03.149Z,71.20
2022-08-03T09:38:29.735Z,74.80
2022-08-03T09:40:59.963Z,70.00
2022-08-03T09:43:27.745Z,71.50
2022-08-03T09:46:07.212Z,70.30
2022-08-03T09:48:35.393Z,73.80
2022-08-03T09:51:14.386Z,74.50
2022-08-03T09:53:58.713Z,72.50
2022-08-03T09:56:38.923Z,71.70
2022-08-03T09:59:05.642Z,70.90
2022-08-03T10:01:36.062Z,70.80
2022-08-03T10:04:05.175Z,71.20
2022-08-03T10:06:32.236Z,70.40
2022-08-03T10:09:07.317Z,71.30
2022-08-03T10:11:40.880Z,72.60
2022-08-03T10:14:10.615Z,73.40
2022-08-03T10:16:39.140Z,72.80
2022-08-03T10:19:07.588Z,76.00
2022-08-03T10:21:37.132Z,73.80
2022-08-03T10:24:06.481Z,74.70
2022-08-03T10:26:35.242Z,75.20
2022-08-03T10:29:07.831Z,75.50
2022-08-03T10:31:57.625Z,73.40
2022-08-03T10:34:29.140Z,74.90
2022-08-03T10:36:58.815Z,74.50
2022-08-03T10:39:29.127Z,74.00
2022-08-03T10:41:58.678Z,75.50
2022-08-03T10:44:33.827Z,75.70
2022-08-03T10:47:01.453Z,74.10
2022-08-03T10:49:33.784Z,75.00
2022-08-03T10:52:13.457Z,73.20
2022-08-03T10:55:13.074Z,73.00
2022-08-03T10:57:49.859Z,77.40
2022-08-03T11:00:28.207Z,73.50
2022-08-03T11:03:14.502Z,72.90
2022-08-03T11:05:46.797Z,70.90
2022-08-03T11:08:28.147Z,71.00
2022-08-03T11:11:00.778Z,71.80
2022-08-03T11:13:31.860Z,74.40
2022-08-03T11:16:02.995Z,71.60
2022-08-03T11:18:31.675Z,71.00
2022-08-03T11:21:00.278Z,69.00
2022-08-03T11:24:05.164Z,66.80
2022-08-03T11:26:33.885Z,68.40
2022-08-03T11:29:29.169Z,68.90
2022-08-03T11:31:56.015Z,66.10
2022-08-03T11:34:24.313Z,67.60
2022-08-03T11:37:21.346Z,66.20
2022-08-03T11:39:50.105Z,66.40
2022-08-03T11:42:22.739Z,66.40
2022-08-03T11:44:50.885Z,66.80
2022-08-03T11:47:18.253Z,68.50
2022-08-03T11:49:47.762Z,66.40
2022-08-03T11:52:15.866Z,67.80
2022-08-03T11:54:43.286Z,68.20
2022-08-03T11:57:10.366Z,68.50
2022-08-03T11:59:38.791Z,70.00
2022-08-03T12:02:10.482Z,69.90
2022-08-03T12:04:50.194Z,68.80
2022-08-03T12:08:02.396Z,69.40
2022-08-03T12:10:15.506Z,69.20
2022-08-03T12:12:46.397Z,69.10
2022-08-03T12:15:13.610Z,67.60
2022-08-03T12:17:41.420Z,68.40
2022-08-03T12:20:10.184Z,69.90
2022-08-03T12:22:40.430Z,70.60
2022-08-03T12:25:08.973Z,70.30
2022-08-03T12:27:36.477Z,70.80
2022-08-03T12:30:04.550Z,72.00
2022-08-03T12:32:31.487Z,74.90
2022-08-03T12:35:00.868Z,72.80
2022-08-03T12:37:28.321Z,72.20
2022-08-03T12:40:03.066Z,73.00
2022-08-03T12:42:38.314Z,72.20
2022-08-03T12:45:24.713Z,71.20
2022-08-03T12:47:55.721Z,72.80
2022-08-03T12:50:32.151Z,72.80
2022-08-03T12:53:00.417Z,76.00
2022-08-03T12:55:56.508Z,77.30
2022-08-03T12:58:33.376Z,79.00
2022-08-03T13:01:00.097Z,74.10
2022-08-03T13:03:39.287Z,73.90
2022-08-03T13:06:14.613Z,75.10
2022-08-03T13:08:42.891Z,75.90
2022-08-03T13:11:57.511Z,75.80
2022-08-03T13:14:16.838Z,77.00
2022-08-03T13:16:46.606Z,75.00
2022-08-03T13:19:15.544Z,78.80
2022-08-03T13:22:01.732Z,75.90
2022-08-03T13:24:30.429Z,74.70
2022-08-03T13:26:58.044Z,76.20
2022-08-03T13:29:24.601Z,75.10
2022-08-03T13:31:51.746Z,74.60
2022-08-03T13:34:23.198Z,73.90
2022-08-03T13:37:08.572Z,76.30
2022-08-03T13:39:57.794Z,75.70
2022-08-03T13:42:23.098Z,75.50
2022-08-03T13:44:49.815Z,75.30
2022-08-03T13:47:16.557Z,74.90
2022-08-03T13:49:54.007Z,73.40
2022-08-03T13:52:27.721Z,73.90
2022-08-03T13:54:54.518Z,74.00
2022-08-03T13:58:02.187Z,78.20
2022-08-03T14:00:08.689Z,74.70
2022-08-03T14:02:35.473Z,75.00
2022-08-03T14:05:02.157Z,75.00
2022-08-03T14:07:28.994Z,74.10
2022-08-03T14:09:55.643Z,73.20
2022-08-03T14:12:22.249Z,74.80
2022-08-03T14:14:48.863Z,73.70
2022-08-03T14:17:16.360Z,72.60
2022-08-03T14:19:53.503Z,71.70
2022-08-03T14:22:20.993Z,73.20
2022-08-03T14:24:47.624Z,70.50
2022-08-03T14:27:15.984Z,73.10
2022-08-03T14:29:43.886Z,71.80
2022-08-03T14:32:13.165Z,74.20
2022-08-03T14:34:40.755Z,75.30
2022-08-03T14:37:07.471Z,73.70
2022-08-03T14:42:20.833Z,71.30
2022-08-03T14:44:47.962Z,72.30
2022-08-03T14:47:14.770Z,72.20
2022-08-03T14:50:37.226Z,72.40
2022-08-03T14:52:28.611Z,72.70
2022-08-03T14:54:55.295Z,71.60
2022-08-03T14:57:22.221Z,73.00
2022-08-03T14:59:56.898Z,73.50
2022-08-03T15:02:24.620Z,72.60
2022-08-03T15:04:51.842Z,72.30
2022-08-03T15:07:19.078Z,72.80
2022-08-03T15:09:46.006Z,74.50
2022-08-03T15:12:13.009Z,73.60
2022-08-03T15:14:39.691Z,73.10
2022-08-03T15:17:06.851Z,75.00
2022-08-03T15:20:04.506Z,74.90
2022-08-03T15:22:24.938Z,77.10
2022-08-03T15:24:52.457Z,77.10
2022-08-03T15:27:19.358Z,77.00
2022-08-03T15:30:06.715Z,78.10
2022-08-03T15:32:34.072Z,79.10
2022-08-03T15:35:00.822Z,78.40
2022-08-03T15:37:27.865Z,76.70
2022-08-03T15:39:59.713Z,77.30
2022-08-03T15:42:31.073Z,77.20
2022-08-03T15:44:58.054Z,76.70
2022-08-03T15:47:25.043Z,77.30
2022-08-03T15:49:51.654Z,77.70
2022-08-03T15:52:18.324Z,78.00
2022-08-03T15:54:44.927Z,75.80
2022-08-03T15:57:11.499Z,75.10
2022-08-03T15:59:38.092Z,76.50
2022-08-03T16:02:04.854Z,77.90
2022-08-03T16:04:31.519Z,77.80
2022-08-03T16:06:58.116Z,77.70
2022-08-03T16:09:42.857Z,76.50
2022-08-03T16:12:15.528Z,76.80
2022-08-03T16:14:52.513Z,76.20
2022-08-03T16:17:20.988Z,76.60
2022-08-03T16:19:47.821Z,77.20
2022-08-03T16:22:14.675Z,77.30
2022-08-03T16:24:41.408Z,76.40
2022-08-03T16:27:37.419Z,78.00
2022-08-03T16:29:55.013Z,76.30
2022-08-03T16:32:21.640Z,78.50
2022-08-03T16:34:48.275Z,78.20
2022-08-03T16:37:37.739Z,78.50
2022-08-03T16:40:03.273Z,78.90
2022-08-03T16:42:29.969Z,78.40
2022-08-03T16:44:56.617Z,77.60
2022-08-03T16:47:23.531Z,79.80
2022-08-03T16:49:55.252Z,79.80
2022-08-03T16:52:23.813Z,80.30
2022-08-03T16:54:53.695Z,79.70
2022-08-03T16:57:56.066Z,80.40
2022-08-03T17:00:32.911Z,81.60
2022-08-03T17:03:04.093Z,81.80
2022-08-03T17:05:43.596Z,82.40
2022-08-03T17:08:15.569Z,82.90
2022-08-03T17:10:45.229Z,83.70
2022-08-03T17:13:22.022Z,83.70
2022-08-03T17:16:01.520Z,84.40
2022-08-03T17:18:33.990Z,84.60
2022-08-03T17:21:05.741Z,85.10
2022-08-03T17:23:44.173Z,84.20
2022-08-03T17:26:21.129Z,84.60
2022-08-03T17:28:57.369Z,85.60
2022-08-03T17:31:31.110Z,86.00
2022-08-03T17:34:01.211Z,86.50
2022-08-03T17:36:47.544Z,87.10
2022-08-03T17:39:17.311Z,87.40
2022-08-03T17:41:50.064Z,88.30
2022-08-03T17:44:31.985Z,87.20
2022-08-03T17:47:06.503Z,87.80
2022-08-03T17:49:33.473Z,88.30
2022-08-03T17:52:27.210Z,89.30
2022-08-03T17:55:57.870Z,90.90
2022-08-03T17:58:06.658Z,92.90
2022-08-03T18:00:54.973Z,94.70
2022-08-03T18:03:57.734Z,96.10
2022-08-03T18:06:56.451Z,97.40
2022-08-03T18:10:04.239Z,98.70
2022-08-03T18:12:23.514Z,99.90
2022-08-03T18:15:01.291Z,99.90
2022-08-03T18:17:55.464Z,99.90
2022-08-03T18:20:32.369Z,99.90
2022-08-03T18:23:06.478Z,99.90
2022-08-03T18:25:45.292Z,99.90
2022-08-03T18:28:16.278Z,99.90
2022-08-03T18:30:54.499Z,99.90
2022-08-03T18:34:19.856Z,99.90
2022-08-03T18:36:17.407Z,99.90
2022-08-03T18:38:47.419Z,99.90
2022-08-03T18:41:20.739Z,99.90
2022-08-03T18:44:07.900Z,99.90
2022-08-03T18:47:07.295Z,99.90
2022-08-03T18:49:54.685Z,99.90
2022-08-03T18:52:53.337Z,99.90
2022-08-03T18:55:35.272Z,99.90
2022-08-03T18:58:33.575Z,99.90
2022-08-03T19:01:57.511Z,99.90
2022-08-03T19:04:02.841Z,99.90
2022-08-03T19:06:31.647Z,99.90
2022-08-03T19:09:12.967Z,99.90
2022-08-03T19:12:10.957Z,99.90
2022-08-03T19:14:41.630Z,99.90
2022-08-03T19:17:10.753Z,99.90
2022-08-03T19:19:43.960Z,99.90
2022-08-03T19:22:12.615Z,99.90
2022-08-03T19:24:45.078Z,99.90
2022-08-03T19:27:12.634Z,99.90
2022-08-03T19:29:59.952Z,99.90
2022-08-03T19:32:29.985Z,99.90
2022-08-03T19:34:59.398Z,99.90
2022-08-03T19:37:37.976Z,99.90
2022-08-03T19:40:10.429Z,99.90
2022-08-03T19:42:44.576Z,99.90
2022-08-03T19:45:14.392Z,99.90
2022-08-03T19:47:47.462Z,99.90
2022-08-03T19:50:15.937Z,99.90
2022-08-03T19:52:47.633Z,99.90
2022-08-03T19:55:17.061Z,99.90
2022-08-03T19:57:47.020Z,99.90
2022-08-03T20:00:19.225Z,99.90
2022-08-03T20:02:46.130Z,99.90
2022-08-03T20:05:14.891Z,99.90
2022-08-03T20:07:43.465Z,99.90
2022-08-03T20:10:15.832Z,99.90
2022-08-03T20:12:44.387Z,99.90
2022-08-03T20:15:11.252Z,99.90
2022-08-03T20:17:54.384Z,99.90
2022-08-03T20:20:30.080Z,99.90
2022-08-03T20:22:58.618Z,99.90
2022-08-03T20:25:37.567Z,99.90
2022-08-03T20:28:26.770Z,99.90
2022-08-03T20:30:54.725Z,99.90
2022-08-03T20:33:27.841Z,99.90
2022-08-03T20:36:08.458Z,99.90
2022-08-03T20:38:40.899Z,99.90
2022-08-03T20:41:10.670Z,99.90
2022-08-03T20:43:37.450Z,99.90
2022-08-03T20:46:29.630Z,99.90
2022-08-03T20:48:51.564Z,99.90
2022-08-03T20:51:20.424Z,99.90
2022-08-03T20:54:28.724Z,99.90
2022-08-03T20:56:53.684Z,99.90
2022-08-03T20:59:20.629Z,99.90
2022-08-03T21:01:47.349Z,99.90
2022-08-03T21:04:14.422Z,99.90
2022-08-03T21:06:53.996Z,99.90
2022-08-03T21:09:39.857Z,99.90
2022-08-03T21:12:11.701Z,99.90
2022-08-03T21:14:58.019Z,99.90
2022-08-03T21:17:40.021Z,99.90
2022-08-03T21:20:10.143Z,99.90
2022-08-03T21:22:38.818Z,99.90
2022-08-03T21:25:10.889Z,99.90
2022-08-03T21:27:37.628Z,99.90
2022-08-03T21:30:09.749Z,99.90
2022-08-03T21:32:40.011Z,99.90
2022-08-03T21:35:10.017Z,99.90
2022-08-03T21:37:38.861Z,99.90
2022-08-03T21:40:06.819Z,99.90
2022-08-03T21:42:33.558Z,99.90
2022-08-03T21:45:00.159Z,99.90
2022-08-03T21:47:26.993Z,99.90
2022-08-03T21:50:06.538Z,99.90
2022-08-03T21:52:47.886Z,99.90
2022-08-03T21:55:20.856Z,99.90
2022-08-03T21:57:53.180Z,99.90
2022-08-03T22:00:22.792Z,99.90
2022-08-03T22:02:54.728Z,99.90
2022-08-03T22:05:42.911Z,99.90
2022-08-03T22:08:13.194Z,99.90
2022-08-03T22:10:40.365Z,99.90
2022-08-03T22:13:07.021Z,99.90
2022-08-03T22:15:33.706Z,99.90
2022-08-03T22:18:03.385Z,99.90
2022-08-03T22:20:30.178Z,99.90
2022-08-03T22:23:01.293Z,99.90
2022-08-03T22:25:32.300Z,99.90
2022-08-03T22:28:02.675Z,99.90
2022-08-03T22:30:29.744Z,99.90
2022-08-03T22:32:57.835Z,99.90
2022-08-03T22:35:26.159Z,99.90
2022-08-03T22:37:55.025Z,99.90
2022-08-03T22:40:22.192Z,99.90
2022-08-03T22:42:52.029Z,99.90
2022-08-03T22:45:45.213Z,99.90
2022-08-03T22:48:08.037Z,99.90
2022-08-03T22:50:35.340Z,99.90
2022-08-03T22:53:02.238Z,99.90
2022-08-03T22:55:29.269Z,99.90
2022-08-03T22:57:56.544Z,99.90
2022-08-03T23:00:24.034Z,99.90
2022-08-03T23:02:51.987Z,99.90
2022-08-03T23:06:01.276Z,99.90
2022-08-03T23:08:23.157Z,99.90
2022-08-03T23:10:51.312Z,99.90
2022-08-03T23:13:18.945Z,99.90
2022-08-03T23:15:56.110Z,99.90
2022-08-03T23:18:24.643Z,99.90
2022-08-03T23:20:57.993Z,99.90
2022-08-03T23:23:24.877Z,99.90
2022-08-03T23:25:52.067Z,99.90
2022-08-03T23:28:18.829Z,99.90
2022-08-03T23:30:45.967Z,99.90
2022-08-03T23:33:14.726Z,99.90
2022-08-03T23:36:20.005Z,99.90
2022-08-03T23:38:44.576Z,99.90
2022-08-03T23:41:13.419Z,99.90
2022-08-03T23:43:52.227Z,99.90
2022-08-03T23:46:22.193Z,99.90
2022-08-03T23:48:49.576Z,99.90
2022-08-03T23:51:41.982Z,99.90
2022-08-03T23:54:29.886Z,99.90
2022-08-03T23:57:04.972Z,99.90
2022-08-03T23:59:57.270Z,99.90
